Time;durP1;ratioP1;P1;durP2;ratioP2;P2;SDS_P1;SDS_P2;PMS_P1;PMS_P2;Temp;Humidity;BMP_temperature;BMP_pressure;BME280_temperature;BME280_humidity;BME280_pressure;Samples;Min_cycle;Max_cycle;Signal;HPM_P1;HPM_P2
2022/01/06 00:00:04;;;;;;;;;;;2.30;99.90;;;;;;6256084;22;19919;-87
2022/01/06 00:02:29;;;;;;;;;;;1.50;99.90;;;;;;6255949;22;20379;-87
2022/01/06 00:04:55;;;;;;;;;;;3.50;99.90;;;;;;6231050;22;19961;-88
2022/01/06 00:07:20;;;;;;;;;;;2.20;99.90;;;;;;6281475;22;19915;-88
2022/01/06 00:09:48;;;;;;;;;;;2.10;99.90;;;;;;6230880;22;19986;-87
2022/01/06 00:12:16;;;;;;;;;;;2.20;99.90;;;;;;6231222;22;19950;-88
2022/01/06 00:17:46;;;;;;;;;;;2.20;99.90;;;;;;6260256;22;19919;-87
2022/01/06 00:23:22;;;;;;;;;;;2.20;99.90;;;;;;6259893;22;19915;-87
2022/01/06 00:25:48;;;;;;;;;;;2.30;99.90;;;;;;6261248;22;19949;-87
2022/01/06 00:28:13;;;;;;;;;;;2.30;99.90;;;;;;6255709;22;20262;-87
2022/01/06 00:30:39;;;;;;;;;;;2.90;99.90;;;;;;6255061;22;19961;-88
2022/01/06 00:33:04;;;;;;;;;;;3.50;99.90;;;;;;6255708;22;19915;-87
2022/01/06 00:35:29;;;;;;;;;;;1.90;99.90;;;;;;6255682;22;20239;-87
2022/01/06 00:37:55;;;;;;;;;;;1.80;99.90;;;;;;6256067;22;19915;-87
2022/01/06 00:40:21;;;;;;;;;;;2.00;99.90;;;;;;6230902;22;19952;-88
2022/01/06 00:42:46;;;;;;;;;;;2.00;99.90;;;;;;6255538;22;19968;-88
2022/01/06 00:45:12;;;;;;;;;;;2.00;99.90;;;;;;6230363;22;19971;-87
2022/01/06 00:47:37;;;;;;;;;;;2.10;99.90;;;;;;6230483;22;20250;-87
2022/01/06 00:50:03;;;;;;;;;;;2.00;99.90;;;;;;6230287;22;19930;-88
2022/01/06 00:52:28;;;;;;;;;;;2.00;99.90;;;;;;6230551;22;19915;-87
2022/01/06 00:54:54;;;;;;;;;;;1.80;99.90;;;;;;6255746;22;19919;-88
2022/01/06 00:57:19;;;;;;;;;;;2.90;99.90;;;;;;6230001;22;20021;-86
2022/01/06 00:59:45;;;;;;;;;;;1.80;99.90;;;;;;6230741;22;19915;-87
2022/01/06 01:02:10;;;;;;;;;;;1.90;99.90;;;;;;6230185;22;19990;-88
2022/01/06 01:04:36;;;;;;;;;;;1.80;99.90;;;;;;6230416;22;19997;-88
2022/01/06 01:07:01;;;;;;;;;;;1.70;99.90;;;;;;6230254;22;19973;-88
2022/01/06 01:09:27;;;;;;;;;;;1.80;99.90;;;;;;6230224;22;19915;-87
2022/01/06 01:11:53;;;;;;;;;;;2.90;99.90;;;;;;6230077;22;19968;-87
2022/01/06 01:14:27;;;;;;;;;;;1.60;99.90;;;;;;6230280;22;19946;-88
2022/01/06 01:16:58;;;;;;;;;;;1.70;99.90;;;;;;6231649;22;19945;-87
2022/01/06 01:19:24;;;;;;;;;;;1.90;99.90;;;;;;6245343;22;20244;-87
2022/01/06 01:21:49;;;;;;;;;;;1.60;99.90;;;;;;6255345;22;19915;-87
2022/01/06 01:24:15;;;;;;;;;;;1.30;99.90;;;;;;6229951;22;20322;-88
2022/01/06 01:26:40;;;;;;;;;;;1.40;99.90;;;;;;6280682;22;20331;-87
2022/01/06 01:29:13;;;;;;;;;;;2.50;99.90;;;;;;6230086;22;19918;-87
2022/01/06 01:31:43;;;;;;;;;;;2.00;99.90;;;;;;6256448;22;19946;-87
2022/01/06 01:34:10;;;;;;;;;;;1.20;99.90;;;;;;6231019;22;19982;-88
2022/01/06 01:36:35;;;;;;;;;;;1.20;99.90;;;;;;6229987;22;20211;-88
2022/01/06 01:39:01;;;;;;;;;;;1.10;99.90;;;;;;6255117;22;19915;-87
2022/01/06 01:41:26;;;;;;;;;;;1.10;99.90;;;;;;6229805;22;19928;-87
2022/01/06 01:43:54;;;;;;;;;;;1.10;99.90;;;;;;6254818;22;19915;-87
2022/01/06 01:46:27;;;;;;;;;;;0.90;99.90;;;;;;6230414;22;20387;-88
2022/01/06 01:49:13;;;;;;;;;;;1.00;99.90;;;;;;6231389;22;19915;-88
2022/01/06 01:51:38;;;;;;;;;;;0.90;99.90;;;;;;6259052;22;19922;-88
2022/01/06 01:54:04;;;;;;;;;;;0.80;99.90;;;;;;6254790;22;19914;-87
2022/01/06 01:56:30;;;;;;;;;;;1.00;99.90;;;;;;6229681;22;20247;-87
2022/01/06 01:58:55;;;;;;;;;;;1.00;99.90;;;;;;6229902;22;19981;-87
2022/01/06 02:01:21;;;;;;;;;;;1.10;99.90;;;;;;6229728;22;20347;-87
2022/01/06 02:03:46;;;;;;;;;;;1.20;99.90;;;;;;6254889;22;19922;-87
2022/01/06 02:06:12;;;;;;;;;;;1.10;99.90;;;;;;6228879;22;19933;-88
2022/01/06 02:08:38;;;;;;;;;;;1.20;99.90;;;;;;6229818;22;19922;-87
2022/01/06 02:11:03;;;;;;;;;;;2.20;99.90;;;;;;6254569;22;19915;-88
2022/01/06 02:13:30;;;;;;;;;;;2.10;99.90;;;;;;6229445;22;19914;-87
2022/01/06 02:16:00;;;;;;;;;;;1.40;99.90;;;;;;6254945;22;20311;-87
2022/01/06 02:18:26;;;;;;;;;;;1.50;99.90;;;;;;6229982;22;19921;-88
2022/01/06 02:20:52;;;;;;;;;;;1.50;99.90;;;;;;6229505;22;19914;-88
2022/01/06 02:23:18;;;;;;;;;;;1.40;99.90;;;;;;6229681;22;20343;-87
2022/01/06 02:25:43;;;;;;;;;;;1.30;99.90;;;;;;6254889;22;19914;-87
2022/01/06 02:28:09;;;;;;;;;;;1.60;99.90;;;;;;6229758;22;19914;-87
2022/01/06 02:30:35;;;;;;;;;;;1.40;99.90;;;;;;6280304;22;19922;-87
2022/01/06 02:33:01;;;;;;;;;;;1.40;99.90;;;;;;6229511;22;19919;-87
2022/01/06 02:35:27;;;;;;;;;;;1.50;99.90;;;;;;6229298;22;20006;-87
2022/01/06 02:37:53;;;;;;;;;;;1.50;99.90;;;;;;6280519;22;20298;-87
2022/01/06 02:40:19;;;;;;;;;;;1.70;99.90;;;;;;6229182;22;19950;-87
2022/01/06 02:42:46;;;;;;;;;;;1.60;99.90;;;;;;6254651;22;20358;-88
2022/01/06 02:45:12;;;;;;;;;;;2.20;99.90;;;;;;6254819;22;20346;-87
2022/01/06 02:47:40;;;;;;;;;;;2.10;99.90;;;;;;6254775;22;19918;-87
2022/01/06 02:50:05;;;;;;;;;;;2.20;99.90;;;;;;6254560;22;20323;-87
2022/01/06 02:52:31;;;;;;;;;;;2.10;99.90;;;;;;6229358;22;19915;-86
2022/01/06 02:54:56;;;;;;;;;;;2.20;99.90;;;;;;6280944;22;19923;-87
2022/01/06 02:57:22;;;;;;;;;;;1.90;99.90;;;;;;6231766;22;19994;-87
2022/01/06 02:59:48;;;;;;;;;;;1.70;99.90;;;;;;6231393;22;19994;-88
2022/01/06 03:02:13;;;;;;;;;;;1.70;99.90;;;;;;6282121;22;19942;-87
2022/01/06 03:04:39;;;;;;;;;;;1.80;99.90;;;;;;6256638;22;19915;-87
2022/01/06 03:07:05;;;;;;;;;;;1.60;99.90;;;;;;6231244;22;19922;-86
2022/01/06 03:09:38;;;;;;;;;;;1.50;99.90;;;;;;6256697;22;19914;-86
2022/01/06 03:12:05;;;;;;;;;;;1.50;99.90;;;;;;6232776;22;19915;-88
2022/01/06 03:14:32;;;;;;;;;;;1.40;99.90;;;;;;6231153;22;19919;-87
2022/01/06 03:16:58;;;;;;;;;;;1.20;99.90;;;;;;6231325;22;20048;-87
2022/01/06 03:19:23;;;;;;;;;;;1.90;99.90;;;;;;6256593;22;20335;-87
2022/01/06 03:21:49;;;;;;;;;;;1.60;99.90;;;;;;6231041;22;19915;-88
2022/01/06 03:24:16;;;;;;;;;;;0.80;99.90;;;;;;6256032;22;19915;-87
2022/01/06 03:26:41;;;;;;;;;;;0.60;99.90;;;;;;6256400;22;19922;-87
2022/01/06 03:29:07;;;;;;;;;;;0.80;99.90;;;;;;6256525;22;20256;-86
2022/01/06 03:31:32;;;;;;;;;;;0.60;99.90;;;;;;6231005;22;19919;-87
2022/01/06 03:33:58;;;;;;;;;;;0.70;99.90;;;;;;6230865;22;19915;-87
2022/01/06 03:36:23;;;;;;;;;;;0.70;99.90;;;;;;6256178;22;19918;-87
2022/01/06 03:38:49;;;;;;;;;;;0.50;99.90;;;;;;6231240;22;19915;-87
2022/01/06 03:41:14;;;;;;;;;;;0.60;99.90;;;;;;6231007;22;19924;-87
2022/01/06 03:43:40;;;;;;;;;;;0.50;99.90;;;;;;6256076;22;19937;-87
2022/01/06 03:46:05;;;;;;;;;;;0.50;99.90;;;;;;6281736;22;19915;-87
2022/01/06 03:48:31;;;;;;;;;;;0.60;99.90;;;;;;6256042;22;19990;-87
2022/01/06 03:50:56;;;;;;;;;;;0.40;99.90;;;;;;6230850;22;19919;-87
2022/01/06 03:53:22;;;;;;;;;;;1.20;99.90;;;;;;6281798;22;19915;-87
2022/01/06 03:55:47;;;;;;;;;;;1.30;99.90;;;;;;6230547;22;19997;-87
2022/01/06 03:58:13;;;;;;;;;;;0.60;99.90;;;;;;6231293;22;20296;-87
2022/01/06 04:00:38;;;;;;;;;;;0.20;99.90;;;;;;6255911;22;19921;-86
2022/01/06 04:03:04;;;;;;;;;;;0.40;99.90;;;;;;6282343;22;20243;-87
2022/01/06 04:05:31;;;;;;;;;;;0.40;99.90;;;;;;6256304;22;19990;-86
2022/01/06 04:07:57;;;;;;;;;;;0.30;99.90;;;;;;6231223;22;19918;-86
2022/01/06 04:10:22;;;;;;;;;;;0.50;99.90;;;;;;6255876;22;19982;-87
2022/01/06 04:12:48;;;;;;;;;;;1.30;99.90;;;;;;6281514;22;20250;-87
2022/01/06 04:15:14;;;;;;;;;;;0.40;99.90;;;;;;6230169;22;19945;-87
2022/01/06 04:17:40;;;;;;;;;;;0.10;99.90;;;;;;6230947;22;19919;-87
2022/01/06 04:20:07;;;;;;;;;;;0.30;99.90;;;;;;6230562;22;19915;-87
2022/01/06 04:22:33;;;;;;;;;;;0.30;99.90;;;;;;6256050;22;19996;-87
2022/01/06 04:24:58;;;;;;;;;;;0.20;99.90;;;;;;6281501;22;19915;-87
2022/01/06 04:27:24;;;;;;;;;;;0.30;99.90;;;;;;6230639;22;19915;-87
2022/01/06 04:29:49;;;;;;;;;;;0.20;99.90;;;;;;6256093;22;20349;-87
2022/01/06 04:32:15;;;;;;;;;;;0.80;99.90;;;;;;6230120;22;19989;-87
2022/01/06 04:34:40;;;;;;;;;;;0.20;99.90;;;;;;6255628;22;20289;-87
2022/01/06 04:37:06;;;;;;;;;;;0.10;99.90;;;;;;6230240;22;19919;-87
2022/01/06 04:39:31;;;;;;;;;;;-0.10;99.90;;;;;;6255729;22;19914;-88
2022/01/06 04:41:57;;;;;;;;;;;0.10;99.90;;;;;;6230367;22;19921;-87
2022/01/06 04:44:22;;;;;;;;;;;-0.10;99.90;;;;;;6230563;22;19919;-87
2022/01/06 04:46:48;;;;;;;;;;;-0.10;99.90;;;;;;6230233;22;19915;-86
2022/01/06 04:49:14;;;;;;;;;;;-0.20;99.90;;;;;;6281165;22;20216;-88
2022/01/06 04:51:39;;;;;;;;;;;-0.20;99.90;;;;;;6255654;22;20319;-86
2022/01/06 04:54:04;;;;;;;;;;;-0.20;99.90;;;;;;6230528;22;19915;-87
2022/01/06 04:56:36;;;;;;;;;;;-0.30;99.90;;;;;;6255720;22;19919;-86
2022/01/06 04:59:05;;;;;;;;;;;-0.40;99.90;;;;;;6281421;22;19914;-86
2022/01/06 05:01:30;;;;;;;;;;;-0.30;99.90;;;;;;6255468;22;19915;-87
2022/01/06 05:03:56;;;;;;;;;;;-0.60;99.90;;;;;;6230320;22;19919;-86
2022/01/06 05:06:21;;;;;;;;;;;-0.30;99.90;;;;;;6255191;22;19922;-87
2022/01/06 05:08:47;;;;;;;;;;;-0.30;99.90;;;;;;6280983;22;19915;-87
2022/01/06 05:11:12;;;;;;;;;;;-0.40;99.90;;;;;;6280925;22;19926;-86
2022/01/06 05:13:38;;;;;;;;;;;-0.30;99.90;;;;;;6229901;22;19915;-87
2022/01/06 05:16:03;;;;;;;;;;;-0.50;99.90;;;;;;6230226;22;19919;-87
2022/01/06 05:18:29;;;;;;;;;;;-0.30;99.90;;;;;;6229482;22;19921;-87
2022/01/06 05:20:54;;;;;;;;;;;-0.50;99.90;;;;;;6229803;22;19919;-87
2022/01/06 05:23:20;;;;;;;;;;;-0.60;99.90;;;;;;6255338;22;19915;-87
2022/01/06 05:25:46;;;;;;;;;;;-0.70;99.90;;;;;;6281035;22;20235;-88
2022/01/06 05:28:11;;;;;;;;;;;-0.80;99.90;;;;;;6255623;22;19991;-87
2022/01/06 05:30:36;;;;;;;;;;;-0.60;99.90;;;;;;6229859;22;19919;-87
2022/01/06 05:33:02;;;;;;;;;;;-0.60;99.90;;;;;;6229700;22;19919;-88
2022/01/06 05:35:27;;;;;;;;;;;-1.00;99.90;;;;;;6229680;22;19959;-87
2022/01/06 05:37:53;;;;;;;;;;;-0.90;99.90;;;;;;6230316;22;19989;-87
2022/01/06 05:40:18;;;;;;;;;;;-1.10;99.90;;;;;;6229868;22;19915;-89
2022/01/06 05:42:44;;;;;;;;;;;-0.90;99.90;;;;;;6280505;22;19930;-88
2022/01/06 05:45:11;;;;;;;;;;;-0.80;99.90;;;;;;6229761;22;19915;-88
2022/01/06 05:47:36;;;;;;;;;;;-0.80;99.90;;;;;;6230094;22;20011;-87
2022/01/06 05:50:05;;;;;;;;;;;-1.00;99.90;;;;;;6229785;22;19915;-87
2022/01/06 05:52:30;;;;;;;;;;;-0.90;99.90;;;;;;6255745;22;19943;-88
2022/01/06 05:54:56;;;;;;;;;;;-0.90;99.90;;;;;;6229618;22;20358;-87
2022/01/06 05:57:21;;;;;;;;;;;-1.00;99.90;;;;;;6254801;22;19915;-88
2022/01/06 05:59:47;;;;;;;;;;;-0.90;99.90;;;;;;6255049;22;20093;-88
2022/01/06 06:02:12;;;;;;;;;;;-1.00;99.90;;;;;;6229582;22;19919;-88
2022/01/06 06:04:38;;;;;;;;;;;-1.00;99.90;;;;;;6230118;22;19982;-88
2022/01/06 06:07:03;;;;;;;;;;;-0.40;99.90;;;;;;6229618;22;19919;-88
2022/01/06 06:09:29;;;;;;;;;;;-1.10;99.90;;;;;;6229676;22;19915;-88
2022/01/06 06:11:54;;;;;;;;;;;-1.10;99.90;;;;;;6229508;22;19915;-88
2022/01/06 06:14:20;;;;;;;;;;;-0.10;99.90;;;;;;6229392;22;19946;-88
2022/01/06 06:16:45;;;;;;;;;;;-0.10;99.90;;;;;;6229326;22;19915;-88
2022/01/06 06:19:11;;;;;;;;;;;-0.90;99.90;;;;;;6229554;22;19915;-88
2022/01/06 06:21:36;;;;;;;;;;;-0.90;99.90;;;;;;6229472;22;20289;-88
2022/01/06 06:24:02;;;;;;;;;;;0.50;99.90;;;;;;6229406;22;19930;-88
2022/01/06 06:26:28;;;;;;;;;;;0.50;99.90;;;;;;6228851;22;19921;-88
2022/01/06 06:28:53;;;;;;;;;;;-1.00;99.90;;;;;;6255100;22;19921;-88
2022/01/06 06:31:19;;;;;;;;;;;-0.40;99.90;;;;;;6229152;22;19919;-89
2022/01/06 06:33:44;;;;;;;;;;;-1.10;99.90;;;;;;6254764;22;19914;-88
2022/01/06 06:36:10;;;;;;;;;;;-0.40;99.90;;;;;;6227768;22;19919;-87
2022/01/06 06:38:35;;;;;;;;;;;-1.10;99.90;;;;;;6229354;22;19915;-88
2022/01/06 06:41:01;;;;;;;;;;;-0.70;99.90;;;;;;6229576;22;19987;-88
2022/01/06 06:43:26;;;;;;;;;;;-1.20;99.90;;;;;;6229288;22;19919;-89
2022/01/06 06:45:52;;;;;;;;;;;-1.40;99.90;;;;;;6229236;22;20387;-88
2022/01/06 06:48:17;;;;;;;;;;;-1.10;99.90;;;;;;6228548;22;19922;-88
2022/01/06 06:50:43;;;;;;;;;;;-1.40;99.90;;;;;;6224321;22;19988;-88
2022/01/06 06:53:08;;;;;;;;;;;-1.40;99.90;;;;;;6227643;22;19914;-87
2022/01/06 06:55:34;;;;;;;;;;;-0.70;99.90;;;;;;6228139;22;19923;-88
2022/01/06 06:58:00;;;;;;;;;;;-0.20;99.90;;;;;;6227151;22;19922;-88
2022/01/06 07:00:25;;;;;;;;;;;1.00;99.90;;;;;;6227781;22;20055;-87
2022/01/06 07:02:51;;;;;;;;;;;-0.40;99.90;;;;;;6227830;22;19996;-88
2022/01/06 07:05:16;;;;;;;;;;;0.40;99.90;;;;;;6227392;22;19973;-87
2022/01/06 07:07:42;;;;;;;;;;;-0.40;99.90;;;;;;6227601;22;19989;-88
2022/01/06 07:10:08;;;;;;;;;;;-0.60;99.90;;;;;;6227750;22;19978;-88
2022/01/06 07:12:37;;;;;;;;;;;-0.20;99.90;;;;;;6228103;22;19915;-89
2022/01/06 07:15:03;;;;;;;;;;;-0.80;99.90;;;;;;6253315;22;19926;-89
2022/01/06 07:17:28;;;;;;;;;;;-0.20;99.90;;;;;;6228059;22;19915;-89
2022/01/06 07:19:54;;;;;;;;;;;1.20;99.90;;;;;;6253174;22;20075;-89
2022/01/06 07:22:22;;;;;;;;;;;-0.70;99.90;;;;;;6227733;22;19989;-89
2022/01/06 07:24:47;;;;;;;;;;;0.50;99.90;;;;;;6253738;22;19945;-88
2022/01/06 07:27:13;;;;;;;;;;;-0.30;99.90;;;;;;6227779;22;19918;-89
2022/01/06 07:29:41;;;;;;;;;;;0.40;99.90;;;;;;6229151;22;20320;-89
2022/01/06 07:32:07;;;;;;;;;;;0.40;99.90;;;;;;6253179;22;19931;-88
2022/01/06 07:34:32;;;;;;;;;;;-0.30;99.90;;;;;;6227923;22;19922;-88
2022/01/06 07:36:59;;;;;;;;;;;-0.50;99.90;;;;;;6228100;22;20259;-89
2022/01/06 07:39:25;;;;;;;;;;;-0.70;99.90;;;;;;6227867;22;19915;-89
2022/01/06 07:41:51;;;;;;;;;;;-0.70;99.90;;;;;;6254628;22;19989;-89
2022/01/06 07:44:16;;;;;;;;;;;0.00;99.90;;;;;;6229280;22;19919;-89
2022/01/06 07:46:44;;;;;;;;;;;-0.40;99.90;;;;;;6280821;22;19965;-89
2022/01/06 07:49:10;;;;;;;;;;;-0.20;99.90;;;;;;6230651;22;20006;-88
2022/01/06 07:52:03;;;;;;;;;;;0.20;99.90;;;;;;6230050;22;20323;-90
2022/01/06 07:54:29;;;;;;;;;;;1.10;99.90;;;;;;6236679;22;19915;-89
2022/01/06 07:56:54;;;;;;;;;;;-0.70;99.90;;;;;;6281062;22;19922;-90
2022/01/06 07:59:30;;;;;;;;;;;0.30;99.90;;;;;;6229796;22;19989;-90
2022/01/06 08:01:58;;;;;;;;;;;-0.50;99.90;;;;;;6256645;22;19918;-89
2022/01/06 08:04:26;;;;;;;;;;;0.60;99.90;;;;;;6229806;22;19915;-89
2022/01/06 08:06:59;;;;;;;;;;;0.20;99.90;;;;;;6229513;22;19964;-91
2022/01/06 08:09:24;;;;;;;;;;;-0.80;99.90;;;;;;6230683;22;19915;-87
2022/01/06 08:11:50;;;;;;;;;;;-0.80;99.90;;;;;;6254059;22;19915;-88
2022/01/06 08:14:15;;;;;;;;;;;-0.70;99.90;;;;;;6254811;22;19915;-88
2022/01/06 08:16:41;;;;;;;;;;;-0.70;99.90;;;;;;6228951;22;19946;-88
2022/01/06 08:19:06;;;;;;;;;;;-0.80;99.90;;;;;;6229371;22;20232;-88
2022/01/06 08:21:32;;;;;;;;;;;-0.80;99.90;;;;;;6279809;22;19940;-88
2022/01/06 08:23:57;;;;;;;;;;;-0.90;99.90;;;;;;6229289;22;19964;-87
2022/01/06 08:26:23;;;;;;;;;;;0.10;99.90;;;;;;6280440;22;20310;-87
2022/01/06 08:28:48;;;;;;;;;;;-0.70;99.90;;;;;;6229246;22;19964;-87
2022/01/06 08:31:17;;;;;;;;;;;-0.60;99.90;;;;;;6229251;22;19974;-88
2022/01/06 08:33:43;;;;;;;;;;;-0.40;99.90;;;;;;6228347;22;19986;-87
2022/01/06 08:36:08;;;;;;;;;;;-0.40;99.90;;;;;;6228938;22;19958;-88
2022/01/06 08:38:34;;;;;;;;;;;-0.10;99.90;;;;;;6229105;22;19981;-88
2022/01/06 08:40:59;;;;;;;;;;;-0.50;99.90;;;;;;6229008;22;19921;-88
2022/01/06 08:43:27;;;;;;;;;;;-0.80;99.90;;;;;;6229203;22;19915;-89
2022/01/06 08:45:54;;;;;;;;;;;-0.20;99.90;;;;;;6254661;22;19919;-87
2022/01/06 08:48:19;;;;;;;;;;;-0.60;99.90;;;;;;6254255;22;20988;-88
2022/01/06 08:50:45;;;;;;;;;;;-0.80;99.90;;;;;;6253002;22;19950;-88
2022/01/06 08:53:10;;;;;;;;;;;-0.50;99.90;;;;;;6254249;22;19950;-87
2022/01/06 08:55:36;;;;;;;;;;;-0.70;99.90;;;;;;6228645;22;19919;-88
2022/01/06 08:58:01;;;;;;;;;;;-0.60;99.90;;;;;;6228800;22;19915;-88
2022/01/06 09:00:27;;;;;;;;;;;0.10;99.90;;;;;;6279578;22;19965;-87
2022/01/06 09:02:53;;;;;;;;;;;-0.70;99.90;;;;;;6253690;22;19926;-88
2022/01/06 09:05:18;;;;;;;;;;;-0.60;99.90;;;;;;6228046;22;19915;-87
2022/01/06 09:07:44;;;;;;;;;;;0.50;99.90;;;;;;6228588;22;19915;-88
2022/01/06 09:10:09;;;;;;;;;;;-0.50;99.90;;;;;;6228361;22;19918;-87
2022/01/06 09:12:35;;;;;;;;;;;0.40;99.90;;;;;;6253894;22;19915;-87
2022/01/06 09:15:00;;;;;;;;;;;0.70;99.90;;;;;;6279263;22;19918;-88
2022/01/06 09:17:25;;;;;;;;;;;-0.20;99.90;;;;;;6253858;22;19914;-87
2022/01/06 09:19:51;;;;;;;;;;;0.00;99.90;;;;;;6253743;22;19990;-87
2022/01/06 09:22:16;;;;;;;;;;;-0.20;99.90;;;;;;6228870;22;19923;-87
2022/01/06 09:24:42;;;;;;;;;;;0.60;99.90;;;;;;6254273;22;20339;-87
2022/01/06 09:27:08;;;;;;;;;;;0.20;99.90;;;;;;6228372;22;19922;-88
2022/01/06 09:29:33;;;;;;;;;;;-0.30;99.90;;;;;;6253828;22;19919;-87
2022/01/06 09:31:59;;;;;;;;;;;0.40;99.90;;;;;;6228321;22;19926;-89
2022/01/06 09:34:24;;;;;;;;;;;0.30;99.90;;;;;;6228080;22;19915;-87
2022/01/06 09:36:50;;;;;;;;;;;-0.20;99.90;;;;;;6253564;22;20349;-88
2022/01/06 09:39:16;;;;;;;;;;;0.40;99.90;;;;;;6279324;22;19976;-88
2022/01/06 09:41:41;;;;;;;;;;;-0.30;99.90;;;;;;6228928;22;19921;-87
2022/01/06 09:44:07;;;;;;;;;;;-0.10;99.90;;;;;;6279402;22;19919;-87
2022/01/06 09:46:32;;;;;;;;;;;1.40;99.90;;;;;;6279373;22;19914;-87
2022/01/06 09:48:59;;;;;;;;;;;-0.20;99.90;;;;;;6228332;22;19961;-87
2022/01/06 09:51:25;;;;;;;;;;;0.10;99.90;;;;;;6253874;22;19915;-88
2022/01/06 09:53:54;;;;;;;;;;;0.20;99.90;;;;;;6228764;22;19915;-88
2022/01/06 09:56:20;;;;;;;;;;;0.30;99.90;;;;;;6228116;22;20394;-86
2022/01/06 09:58:46;;;;;;;;;;;0.20;99.90;;;;;;6229112;22;19989;-88
2022/01/06 10:01:11;;;;;;;;;;;0.10;99.90;;;;;;6253495;22;19982;-87
2022/01/06 10:03:37;;;;;;;;;;;0.30;99.90;;;;;;6253677;22;19918;-87
2022/01/06 10:06:09;;;;;;;;;;;0.70;99.90;;;;;;6253640;22;19914;-88
2022/01/06 10:08:35;;;;;;;;;;;0.40;99.90;;;;;;6253561;22;19915;-87
2022/01/06 10:11:10;;;;;;;;;;;0.70;99.90;;;;;;6228335;22;19922;-87
2022/01/06 10:13:35;;;;;;;;;;;0.50;99.90;;;;;;6228618;22;19914;-87
2022/01/06 10:16:14;;;;;;;;;;;0.50;99.90;;;;;;6228630;22;19945;-87
2022/01/06 10:18:39;;;;;;;;;;;0.50;99.90;;;;;;6253601;22;19914;-87
2022/01/06 10:21:12;;;;;;;;;;;0.50;99.90;;;;;;6228248;22;19915;-87
2022/01/06 10:23:38;;;;;;;;;;;0.60;99.90;;;;;;6228417;22;19915;-87
2022/01/06 10:26:10;;;;;;;;;;;0.70;99.90;;;;;;6227919;22;20333;-88
2022/01/06 10:28:37;;;;;;;;;;;0.70;99.90;;;;;;6253764;22;19918;-86
2022/01/06 10:31:05;;;;;;;;;;;0.80;99.90;;;;;;6252262;22;19929;-87
2022/01/06 10:33:34;;;;;;;;;;;0.90;99.90;;;;;;6253194;22;20004;-87
2022/01/06 10:36:06;;;;;;;;;;;1.00;99.90;;;;;;6227854;22;19919;-87
2022/01/06 10:38:32;;;;;;;;;;;1.40;99.90;;;;;;6253206;22;19914;-88
2022/01/06 10:41:14;;;;;;;;;;;1.40;99.90;;;;;;6227645;22;19961;-87
2022/01/06 10:43:39;;;;;;;;;;;1.90;99.90;;;;;;6253375;22;19919;-88
2022/01/06 10:46:05;;;;;;;;;;;2.30;99.90;;;;;;6228131;22;19941;-87
2022/01/06 10:48:30;;;;;;;;;;;2.40;99.90;;;;;;6228036;22;20260;-88
2022/01/06 10:50:57;;;;;;;;;;;2.90;99.90;;;;;;6227796;22;19915;-88
2022/01/06 10:53:22;;;;;;;;;;;3.60;99.90;;;;;;6253280;22;19922;-88
2022/01/06 10:55:48;;;;;;;;;;;3.40;99.90;;;;;;6227556;22;19919;-89
2022/01/06 10:58:17;;;;;;;;;;;3.80;99.90;;;;;;6227774;22;19919;-89
2022/01/06 11:00:43;;;;;;;;;;;4.30;99.90;;;;;;6252844;22;20298;-88
2022/01/06 11:03:09;;;;;;;;;;;5.10;99.90;;;;;;6227886;22;20382;-89
2022/01/06 11:05:35;;;;;;;;;;;6.00;99.90;;;;;;6253556;22;19957;-89
2022/01/06 11:08:04;;;;;;;;;;;7.30;99.90;;;;;;6228198;22;19915;-88
2022/01/06 11:10:35;;;;;;;;;;;8.10;99.90;;;;;;6227678;22;19969;-88
2022/01/06 11:13:03;;;;;;;;;;;8.50;99.90;;;;;;6228720;22;19955;-88
2022/01/06 11:15:28;;;;;;;;;;;8.60;99.90;;;;;;6254444;22;19925;-88
2022/01/06 11:17:54;;;;;;;;;;;9.70;99.90;;;;;;6229783;22;20254;-88
2022/01/06 11:20:23;;;;;;;;;;;9.70;99.90;;;;;;6255453;22;19925;-88
2022/01/06 11:22:53;;;;;;;;;;;10.30;99.90;;;;;;6230000;22;19956;-88
2022/01/06 11:25:28;;;;;;;;;;;10.80;99.90;;;;;;6229973;22;20462;-88
2022/01/06 11:28:00;;;;;;;;;;;11.00;99.90;;;;;;6229787;22;19996;-88
2022/01/06 11:30:27;;;;;;;;;;;11.30;99.90;;;;;;6280885;22;19922;-88
2022/01/06 11:32:58;;;;;;;;;;;11.30;99.90;;;;;;6255944;22;19942;-88
2022/01/06 11:35:24;;;;;;;;;;;10.90;99.90;;;;;;6218658;22;19969;-88
2022/01/06 11:37:51;;;;;;;;;;;11.10;99.90;;;;;;6255351;22;20281;-88
2022/01/06 11:40:27;;;;;;;;;;;10.20;99.90;;;;;;6230034;22;19954;-88
2022/01/06 11:42:53;;;;;;;;;;;9.90;99.90;;;;;;6227050;22;19922;-88
2022/01/06 11:45:19;;;;;;;;;;;10.90;99.90;;;;;;6253729;22;19937;-88
2022/01/06 11:47:44;;;;;;;;;;;10.50;99.90;;;;;;6281119;22;20220;-87
2022/01/06 11:50:16;;;;;;;;;;;9.90;99.90;;;;;;6229869;22;20247;-88
2022/01/06 11:53:09;;;;;;;;;;;9.10;99.90;;;;;;6230452;22;19915;-87
2022/01/06 11:55:35;;;;;;;;;;;8.90;99.90;;;;;;6273389;22;19919;-88
2022/01/06 11:58:10;;;;;;;;;;;8.50;99.90;;;;;;6255353;22;19915;-88
2022/01/06 12:00:37;;;;;;;;;;;8.20;99.90;;;;;;6280563;22;19915;-87
2022/01/06 12:03:07;;;;;;;;;;;7.80;99.90;;;;;;6230130;22;19969;-88
2022/01/06 12:05:48;;;;;;;;;;;8.20;99.90;;;;;;6255466;22;19989;-88
2022/01/06 12:08:14;;;;;;;;;;;8.30;99.90;;;;;;6255607;22;19964;-88
2022/01/06 12:10:40;;;;;;;;;;;8.20;99.90;;;;;;6254981;22;19915;-88
2022/01/06 12:13:06;;;;;;;;;;;7.20;99.90;;;;;;6229702;22;19919;-87
2022/01/06 12:15:31;;;;;;;;;;;7.20;99.90;;;;;;6254778;22;20248;-88
2022/01/06 12:17:57;;;;;;;;;;;6.60;99.90;;;;;;6254891;22;19945;-88
2022/01/06 12:20:26;;;;;;;;;;;6.10;99.90;;;;;;6254912;22;19915;-87
2022/01/06 12:22:52;;;;;;;;;;;5.80;99.90;;;;;;6280556;22;19922;-87
2022/01/06 12:25:20;;;;;;;;;;;5.60;99.90;;;;;;6254392;22;19918;-87
2022/01/06 12:27:48;;;;;;;;;;;5.40;99.90;;;;;;6253747;22;19915;-87
2022/01/06 12:30:14;;;;;;;;;;;6.10;99.90;;;;;;6229544;22;19914;-88
2022/01/06 12:32:39;;;;;;;;;;;5.20;99.90;;;;;;6228912;22;19919;-87
2022/01/06 12:35:05;;;;;;;;;;;5.10;99.90;;;;;;6254292;22;19969;-88
2022/01/06 12:37:30;;;;;;;;;;;5.00;99.90;;;;;;6280406;22;20055;-88
2022/01/06 12:39:59;;;;;;;;;;;5.40;99.90;;;;;;6280194;22;19989;-88
2022/01/06 12:42:25;;;;;;;;;;;5.00;99.90;;;;;;6255180;22;19919;-88
2022/01/06 12:44:50;;;;;;;;;;;5.00;99.90;;;;;;6229204;22;19915;-86
2022/01/06 12:47:16;;;;;;;;;;;4.90;99.90;;;;;;6228743;22;19915;-87
2022/01/06 12:49:41;;;;;;;;;;;4.80;99.90;;;;;;6254655;22;19922;-86
2022/01/06 12:52:07;;;;;;;;;;;4.80;99.90;;;;;;6254417;22;19990;-86
2022/01/06 12:54:33;;;;;;;;;;;4.60;99.90;;;;;;6228466;22;20331;-87
2022/01/06 12:57:01;;;;;;;;;;;5.30;99.90;;;;;;6254560;22;19915;-87
2022/01/06 12:59:33;;;;;;;;;;;5.50;99.90;;;;;;6254824;22;19919;-87
2022/01/06 13:01:59;;;;;;;;;;;4.90;99.90;;;;;;6254368;22;19921;-88
2022/01/06 13:04:26;;;;;;;;;;;4.90;99.90;;;;;;6254687;22;19915;-87
2022/01/06 13:06:52;;;;;;;;;;;4.70;99.90;;;;;;6229155;22;19921;-87
2022/01/06 13:09:19;;;;;;;;;;;4.60;99.90;;;;;;6227560;22;19915;-87
2022/01/06 13:11:48;;;;;;;;;;;5.40;99.90;;;;;;6228972;22;19915;-88
2022/01/06 13:14:23;;;;;;;;;;;4.70;99.90;;;;;;6255024;22;19919;-88
2022/01/06 13:16:50;;;;;;;;;;;4.70;99.90;;;;;;6254068;22;19971;-86
2022/01/06 13:19:16;;;;;;;;;;;4.30;99.90;;;;;;6229310;22;20251;-87
2022/01/06 13:21:50;;;;;;;;;;;4.60;99.90;;;;;;6254495;22;19915;-88
2022/01/06 13:24:17;;;;;;;;;;;4.70;99.90;;;;;;6254652;22;19914;-87
2022/01/06 13:26:56;;;;;;;;;;;4.60;99.90;;;;;;6253844;22;19968;-87
2022/01/06 13:29:24;;;;;;;;;;;4.60;99.90;;;;;;6253799;22;19941;-87
2022/01/06 13:31:57;;;;;;;;;;;4.50;99.90;;;;;;6254190;22;19919;-87
2022/01/06 13:34:23;;;;;;;;;;;4.50;99.90;;;;;;6228694;22;19915;-87
2022/01/06 13:36:48;;;;;;;;;;;4.50;99.90;;;;;;6279286;22;19925;-87
2022/01/06 13:39:14;;;;;;;;;;;4.40;99.90;;;;;;6228587;22;19922;-87
2022/01/06 13:41:42;;;;;;;;;;;4.40;99.90;;;;;;6254006;22;19922;-87
2022/01/06 13:44:12;;;;;;;;;;;4.40;99.90;;;;;;6279770;22;19919;-87
2022/01/06 13:46:52;;;;;;;;;;;4.40;99.90;;;;;;6228847;22;19997;-87
2022/01/06 13:52:03;;;;;;;;;;;4.30;99.90;;;;;;6256992;22;19915;-86
2022/01/06 13:54:29;;;;;;;;;;;4.50;99.90;;;;;;6253747;22;19990;-87
2022/01/06 13:56:54;;;;;;;;;;;4.50;99.90;;;;;;6253435;22;19922;-87
2022/01/06 13:59:20;;;;;;;;;;;5.50;99.90;;;;;;6228745;22;19915;-88
2022/01/06 14:01:47;;;;;;;;;;;4.50;99.90;;;;;;6253965;22;20326;-88
2022/01/06 14:04:16;;;;;;;;;;;4.40;99.90;;;;;;6228971;22;19923;-87
2022/01/06 14:06:42;;;;;;;;;;;4.40;99.90;;;;;;6253814;22;20180;-88
2022/01/06 14:09:07;;;;;;;;;;;4.40;99.90;;;;;;6228391;22;19915;-87
2022/01/06 14:11:33;;;;;;;;;;;4.40;99.90;;;;;;6228443;22;19915;-88
2022/01/06 14:13:58;;;;;;;;;;;4.30;99.90;;;;;;6254076;22;20266;-87
2022/01/06 14:16:24;;;;;;;;;;;4.30;99.90;;;;;;6279520;22;19919;-88
2022/01/06 14:18:49;;;;;;;;;;;4.10;99.90;;;;;;6253727;22;19979;-87
2022/01/06 14:21:15;;;;;;;;;;;4.60;99.90;;;;;;6228240;22;20247;-86
2022/01/06 14:23:40;;;;;;;;;;;4.70;99.90;;;;;;6253779;22;19918;-88
2022/01/06 14:26:06;;;;;;;;;;;4.00;99.90;;;;;;6254156;22;19915;-87
2022/01/06 14:28:32;;;;;;;;;;;4.10;99.90;;;;;;6253597;22;19915;-87
2022/01/06 14:30:58;;;;;;;;;;;4.10;99.90;;;;;;6279249;22;19915;-88